SRT weather

Soroti Airport
Soroti, Eastern Region, Uganda

Public forecast

Using degrees Celsius for public forecast. Weather courtesy of forecast.io.

Current aviation weather report (METAR) for Soroti Airport

Report is more than 6 hours old.

Retrieved 2016/01/09 05:00 UTC (4 years ago):

HUSO 090500Z 03004KT 9999 FEW018 BKN100 23/13 Q1017

Aviation forecast (TAF) for Soroti Airport

Forecast is more than 6 hours old.

Retrieved 2019/10/18 12:00 UTC (11 hours ago):

TAF HUSO 181040Z 1812/1912 05006KT 9999 TS SCT021 FEW023CB BKN120 FM 181700 VRB08KT 9000 TSRA SCT019 FEW021CB BKN100 BECMG 1901/1906 34005KT 9999 RA SCT018 FEW020 BKN090 FM 190800 02006KT TS BKN020 FEW022CB